createdAt,value
2022-10-19T00:00:16.002Z,53.97
2022-10-19T00:12:20.230Z,42.08
2022-10-19T00:18:22.495Z,41.33
2022-10-19T00:24:24.799Z,39.22
2022-10-19T00:30:26.910Z,54.65
2022-10-19T00:36:35.205Z,43.10
2022-10-19T00:42:37.433Z,33.65
2022-10-19T00:48:39.509Z,32.40
2022-10-19T00:54:43.135Z,43.90
2022-10-19T01:00:45.407Z,39.35
2022-10-19T01:06:47.857Z,28.13
2022-10-19T01:13:06.254Z,48.95
2022-10-19T01:19:36.321Z,30.20
2022-10-19T01:25:55.581Z,27.85
2022-10-19T01:32:03.350Z,31.55
2022-10-19T01:38:14.290Z,30.27
2022-10-19T01:44:42.464Z,27.38
2022-10-19T01:51:09.330Z,23.23
2022-10-19T01:57:14.438Z,31.10
2022-10-19T02:03:18.289Z,27.70
2022-10-19T02:09:20.905Z,22.67
2022-10-19T02:15:25.318Z,26.98
2022-10-19T02:21:28.429Z,27.63
2022-10-19T02:27:30.634Z,26.58
2022-10-19T02:33:33.279Z,26.45
2022-10-19T02:39:35.508Z,31.23
2022-10-19T02:45:43.546Z,28.05
2022-10-19T02:52:01.710Z,47.72
2022-10-19T02:58:03.928Z,24.45
2022-10-19T03:04:06.170Z,41.28
2022-10-19T03:10:08.663Z,31.02
2022-10-19T03:16:12.732Z,27.20
2022-10-19T03:22:15.202Z,32.30
2022-10-19T03:28:17.402Z,35.22
2022-10-19T03:34:19.745Z,36.60
2022-10-19T03:40:21.997Z,30.95
2022-10-19T03:46:24.567Z,26.97
2022-10-19T03:52:26.693Z,34.03
2022-10-19T03:58:29.181Z,34.90
2022-10-19T04:04:31.165Z,29.00
2022-10-19T04:10:33.397Z,42.33
2022-10-19T04:16:35.392Z,35.23
2022-10-19T04:22:37.650Z,45.33
2022-10-19T04:28:39.813Z,35.50
2022-10-19T04:34:42.136Z,39.80
2022-10-19T04:40:44.508Z,32.92
2022-10-19T04:46:46.691Z,37.92
2022-10-19T04:52:48.910Z,30.93
2022-10-19T04:58:51.034Z,35.00
2022-10-19T05:04:53.308Z,43.83
2022-10-19T05:10:55.469Z,44.73
2022-10-19T05:16:57.529Z,41.87
2022-10-19T05:23:03.281Z,46.00
2022-10-19T05:29:12.103Z,48.10
2022-10-19T05:35:16.453Z,35.45
2022-10-19T05:41:21.820Z,43.35
2022-10-19T05:47:27.342Z,40.28
2022-10-19T05:53:32.944Z,79.00
2022-10-19T06:05:37.559Z,43.08
2022-10-19T06:11:41.798Z,53.78
2022-10-19T06:17:43.890Z,66.00
2022-10-19T06:23:49.865Z,49.33
2022-10-19T06:29:52.115Z,49.20
2022-10-19T06:35:54.591Z,49.33
2022-10-19T06:41:56.979Z,37.05
2022-10-19T06:48:04.963Z,36.80
2022-10-19T06:54:09.863Z,35.15
2022-10-19T07:00:12.657Z,37.72
2022-10-19T07:06:14.958Z,36.38
2022-10-19T07:12:17.352Z,47.90
2022-10-19T07:18:19.597Z,41.97
2022-10-19T07:30:24.196Z,34.70
2022-10-19T07:36:27.289Z,30.42
2022-10-19T07:42:30.797Z,39.67
2022-10-19T07:48:34.006Z,25.58
2022-10-19T07:54:36.079Z,22.38
2022-10-19T08:07:00.536Z,22.73
2022-10-19T08:13:02.556Z,30.85
2022-10-19T08:19:13.265Z,26.98
2022-10-19T08:25:15.568Z,31.52
2022-10-19T08:31:22.872Z,20.67
2022-10-19T08:37:43.801Z,13.95
2022-10-19T08:44:31.107Z,30.30
2022-10-19T08:50:42.687Z,16.85
2022-10-19T08:56:53.711Z,16.40
2022-10-19T09:03:32.005Z,16.60
2022-10-19T09:09:51.474Z,19.90
2022-10-19T09:15:55.629Z,23.38
2022-10-19T09:22:06.899Z,15.40
2022-10-19T09:28:38.818Z,24.33
2022-10-19T09:34:46.566Z,20.52
2022-10-19T09:40:48.925Z,37.42
2022-10-19T09:47:18.442Z,25.38
2022-10-19T09:53:21.935Z,20.48
2022-10-19T09:59:28.549Z,15.68
2022-10-19T10:05:39.530Z,20.27
2022-10-19T10:11:46.384Z,20.50
2022-10-19T10:17:49.996Z,39.35
2022-10-19T10:24:13.187Z,24.17
2022-10-19T10:30:20.089Z,10.50
2022-10-19T10:36:25.317Z,11.68
2022-10-19T10:42:35.623Z,9.75
2022-10-19T10:48:41.393Z,15.05
2022-10-19T10:55:08.661Z,21.92
2022-10-19T11:01:20.577Z,17.85
2022-10-19T11:07:25.618Z,17.77
2022-10-19T11:13:33.146Z,26.73
2022-10-19T11:19:42.515Z,12.27
2022-10-19T11:26:15.895Z,14.10
2022-10-19T11:32:36.000Z,9.13
2022-10-19T11:39:16.242Z,17.35
2022-10-19T11:45:46.417Z,12.85
2022-10-19T11:51:57.730Z,13.10
2022-10-19T11:58:12.966Z,21.80
2022-10-19T12:04:35.123Z,13.63
2022-10-19T12:10:43.166Z,11.32
2022-10-19T12:16:51.009Z,20.50
2022-10-19T12:22:53.450Z,24.27
2022-10-19T12:29:06.697Z,26.58
2022-10-19T12:35:17.585Z,17.55
2022-10-19T12:41:36.884Z,16.50
2022-10-19T12:47:38.871Z,10.63
2022-10-19T12:53:49.250Z,10.95
2022-10-19T13:00:05.312Z,27.90
2022-10-19T13:06:32.879Z,11.23
2022-10-19T13:12:46.679Z,26.75
2022-10-19T13:19:02.534Z,10.07
2022-10-19T13:25:16.824Z,18.63
2022-10-19T13:31:34.296Z,30.45
2022-10-19T13:37:36.520Z,14.80
2022-10-19T13:43:39.999Z,8.65
2022-10-19T13:50:00.245Z,21.70
2022-10-19T13:56:23.166Z,18.52
2022-10-19T14:02:47.812Z,13.73
2022-10-19T14:08:59.395Z,10.77
2022-10-19T14:15:01.460Z,11.48
2022-10-19T14:21:08.655Z,16.10
2022-10-19T14:27:19.613Z,16.67
2022-10-19T14:33:21.926Z,29.17
2022-10-19T14:39:29.666Z,11.48
2022-10-19T14:45:33.011Z,15.27
2022-10-19T14:58:17.250Z,12.55
2022-10-19T15:04:29.518Z,15.77
2022-10-19T15:10:41.823Z,24.43
2022-10-19T15:16:51.229Z,21.03
2022-10-19T15:29:38.618Z,35.47
2022-10-19T15:35:44.394Z,14.27
2022-10-19T15:41:49.607Z,22.42
2022-10-19T15:48:41.450Z,24.10
2022-10-19T15:54:43.570Z,19.67
2022-10-19T16:00:45.565Z,33.13
2022-10-19T16:06:47.645Z,17.23
2022-10-19T16:12:50.151Z,20.53
2022-10-19T16:18:52.655Z,41.25
2022-10-19T16:24:54.685Z,37.30
2022-10-19T16:30:57.447Z,28.30
2022-10-19T16:43:08.163Z,25.90
2022-10-19T16:49:10.376Z,37.40
2022-10-19T16:55:12.444Z,25.83
2022-10-19T17:01:18.012Z,48.80
2022-10-19T17:07:20.171Z,32.95
2022-10-19T17:13:22.333Z,34.70
2022-10-19T17:19:24.553Z,37.20
2022-10-19T17:25:26.549Z,33.38
2022-10-19T17:31:29.725Z,31.87
2022-10-19T17:37:31.830Z,27.05
2022-10-19T17:43:34.447Z,46.07
2022-10-19T17:49:37.349Z,29.27
2022-10-19T17:55:39.374Z,30.80
2022-10-19T18:01:41.933Z,38.03
2022-10-19T18:07:44.594Z,84.85
2022-10-19T18:19:49.159Z,55.90
2022-10-19T18:25:54.297Z,44.13
2022-10-19T18:31:56.942Z,43.17
2022-10-19T18:37:59.376Z,59.85
2022-10-19T18:44:05.512Z,71.32
2022-10-19T18:50:07.918Z,57.85
2022-10-19T18:56:12.923Z,46.22
2022-10-19T19:02:22.216Z,48.10
2022-10-19T19:08:24.925Z,50.17
2022-10-19T19:14:27.261Z,42.60
2022-10-19T19:20:29.387Z,48.83
2022-10-19T19:26:34.827Z,33.35
2022-10-19T19:32:37.874Z,41.00
2022-10-19T19:38:40.378Z,48.13
2022-10-19T19:44:42.479Z,30.80
2022-10-19T19:50:47.092Z,32.17
2022-10-19T19:56:53.541Z,33.40
2022-10-19T20:02:57.214Z,32.97
2022-10-19T20:08:59.396Z,20.98
2022-10-19T20:15:01.797Z,16.77
2022-10-19T20:21:04.756Z,15.98
2022-10-19T20:27:06.935Z,25.25
2022-10-19T20:33:09.025Z,19.50
2022-10-19T20:39:11.370Z,9.50
2022-10-19T20:45:13.785Z,11.32
2022-10-19T20:51:21.325Z,17.40
2022-10-19T20:57:23.270Z,12.07
2022-10-19T21:03:25.376Z,18.03
2022-10-19T21:09:27.528Z,16.20
2022-10-19T21:15:29.763Z,14.67
2022-10-19T21:21:37.287Z,10.43
2022-10-19T21:27:39.622Z,15.63
2022-10-19T21:33:41.668Z,12.05
2022-10-19T21:39:43.812Z,11.57
2022-10-19T21:45:46.042Z,9.27
2022-10-19T21:51:52.264Z,12.60
2022-10-19T21:57:54.314Z,7.80
2022-10-19T22:04:00.600Z,7.37
2022-10-19T22:10:02.869Z,12.43
2022-10-19T22:16:10.594Z,5.20
2022-10-19T22:22:12.706Z,5.57
2022-10-19T22:28:15.062Z,6.72
2022-10-19T22:34:17.772Z,5.65
2022-10-19T22:46:50.295Z,4.90
2022-10-19T22:52:52.456Z,3.57
2022-10-19T22:58:58.554Z,5.60
2022-10-19T23:05:00.527Z,4.57
2022-10-19T23:11:02.637Z,4.77
2022-10-19T23:17:04.792Z,6.13
2022-10-19T23:23:07.868Z,7.63
2022-10-19T23:29:10.724Z,4.68
2022-10-19T23:35:12.717Z,4.70
2022-10-19T23:41:16.122Z,8.53
2022-10-19T23:47:18.407Z,6.45
2022-10-19T23:53:20.473Z,7.43
2022-10-19T23:59:22.710Z,8.73
